Aeroporto :
LOGIN :

Iscrizione | Disclaimer

   EN    FR    IT 

 










Sommario :    VFR   VFR Marginale   IFR   IFR Intensivo   IFR Molto Intensivo
Visibilità : 
Base nubi : 
>= 8 km
>= 3000ft
5 / 8 km
1000 / 3000 ft
1500m / 5 km
500 / 1000 ft
800 / 1500m
200 / 500 ft
< 800m
< 200 ft
Simboli :   Temporali  Nebbia  Neve Forte  Precipitazioni Forti  Vento > 20 kt
SIGMETs :   Varie  Temporali  Ghiacco  Turbolenza  Onda orograficha  Ceneri Vulcaniche






- Altitudine del aeroporto : 433 ft


LFOC - Chateaudun

ULTIMO METAR :
  • 250430Z AUTO 01002KT 2500 0800 R28/0800U

METARs OBSOLETI :
  • 250400Z AUTO 01004KT 3000 BR ////// M01/M01 Q1020
  • 250330Z AUTO 01001KT 0650 0600 R28/0800U FZFG ////// M03/M03 Q1020
  • 250300Z AUTO 00000KT 0450 0350 R28/0400N
  • 250230Z AUTO 01003KT 0600 0500 R28/0600N FZFG ////// M01/M01 Q1020
  • 250200Z AUTO 01003KT 0600 0550 R28/0650N FZFG ////// M01/M01 Q1021

TAF TAF LFOC
Valido dal 24 a 09 ore il 25 a 09 ore UTC


240800Z 2409/2509 03006KT 0500 FZFG VV///
BECMG 2410/2412 3000 BR OVC003
BECMG 2420/2422 0800 FG VV///



MetMap, La meteo Aeronautica in un colpo d'occhio ! - Copyright ORBIFLY Dicembre 2007 - Disclaimer

ORBIFLY MET'MAP TEAM :

Programmazione e sviluppo : Alexandra Zaïnal
Concezione : Baudouin d'Aumeries
Aiuto per la programmazione : Marc-Olivier Méhu
Supporto tecnico e logistico : Manuel Goepfert
Aiuto per la traduzione : Arnaldo La Scala

Contatto : metmap@orbifly.com




FONTI E CREDITI :

   NOAA